Time;durP1;ratioP1;P1;durP2;ratioP2;P2;SDS_P1;SDS_P2;PMS_P1;PMS_P2;Temp;Humidity;BMP_temperature;BMP_pressure;BME280_temperature;BME280_humidity;BME280_pressure;Samples;Min_cycle;Max_cycle;Signal;HPM_P1;HPM_P2
2024/04/26 00:02:26;;;;;;;3.35;2.00;;;13.30;89.90;;;;;;5347001;26;20001;-39
2024/04/26 00:04:53;;;;;;;4.70;2.22;;;13.30;89.90;;;;;;5347762;26;20011;-39
2024/04/26 00:07:23;;;;;;;5.07;2.08;;;13.30;89.90;;;;;;5346474;26;19997;-38
2024/04/26 00:09:49;;;;;;;3.97;1.88;;;13.30;89.90;;;;;;5346196;26;20008;-38
2024/04/26 00:12:15;;;;;;;5.85;2.55;;;13.30;89.90;;;;;;5345639;26;20021;-39
2024/04/26 00:14:59;;;;;;;2.72;1.73;;;13.30;89.90;;;;;;5346077;26;20091;-39
2024/04/26 00:17:25;;;;;;;3.70;2.03;;;13.30;89.80;;;;;;5346426;26;20016;-39
2024/04/26 00:19:51;;;;;;;3.25;1.88;;;13.30;89.80;;;;;;5346500;26;20470;-38
2024/04/26 00:22:16;;;;;;;4.57;2.03;;;13.30;89.80;;;;;;5345123;26;20034;-39
2024/04/26 00:24:42;;;;;;;3.65;2.00;;;13.30;89.80;;;;;;5345798;26;20044;-39
2024/04/26 00:27:08;;;;;;;4.70;2.10;;;13.30;89.80;;;;;;5345589;26;19997;-37
2024/04/26 00:29:34;;;;;;;3.03;1.80;;;13.30;89.80;;;;;;5348205;26;20078;-37
2024/04/26 00:32:01;;;;;;;3.35;1.80;;;13.30;89.70;;;;;;5349573;26;20009;-39
2024/04/26 00:34:26;;;;;;;4.35;2.10;;;13.30;89.70;;;;;;5348429;26;20001;-37
2024/04/26 00:36:52;;;;;;;3.83;2.10;;;13.30;89.70;;;;;;5347892;26;20074;-39
2024/04/26 00:39:17;;;;;;;4.32;2.28;;;13.30;89.70;;;;;;5347896;26;20009;-39
2024/04/26 00:41:43;;;;;;;3.90;1.98;;;13.30;89.70;;;;;;5349260;26;20005;-38
2024/04/26 00:44:13;;;;;;;4.45;2.22;;;13.30;89.60;;;;;;5349400;26;20048;-38
2024/04/26 00:46:46;;;;;;;3.15;1.90;;;13.30;89.60;;;;;;5348786;26;20001;-37
2024/04/26 00:49:12;;;;;;;3.67;1.88;;;13.30;89.60;;;;;;5349073;26;20011;-38
2024/04/26 00:51:38;;;;;;;4.38;1.85;;;13.30;89.60;;;;;;5347922;26;19993;-39
2024/04/26 00:54:04;;;;;;;3.20;1.70;;;13.30;89.60;;;;;;5348278;26;20037;-39
2024/04/26 00:56:32;;;;;;;3.72;1.70;;;13.20;89.50;;;;;;5348746;26;19997;-39
2024/04/26 00:58:58;;;;;;;2.58;1.70;;;13.30;89.60;;;;;;5349562;26;20015;-39
2024/04/26 01:01:24;;;;;;;3.10;1.90;;;13.30;89.60;;;;;;5349538;26;20008;-39
2024/04/26 01:03:50;;;;;;;2.67;1.83;;;13.20;89.50;;;;;;5348172;26;20009;-37
2024/04/26 01:06:17;;;;;;;3.13;1.80;;;13.30;89.60;;;;;;5349163;26;20474;-39
2024/04/26 01:08:43;;;;;;;3.42;1.80;;;13.20;89.50;;;;;;5348653;26;20009;-39
2024/04/26 01:11:11;;;;;;;3.33;1.77;;;13.20;89.40;;;;;;5348909;26;20052;-37
2024/04/26 01:13:37;;;;;;;3.60;1.85;;;13.30;89.50;;;;;;5348248;26;20465;-37
2024/04/26 01:16:04;;;;;;;2.38;1.58;;;13.20;89.40;;;;;;5349294;26;20004;-38
2024/04/26 01:18:30;;;;;;;2.92;1.65;;;13.30;89.50;;;;;;5348268;26;20063;-38
2024/04/26 01:20:56;;;;;;;3.72;1.92;;;13.20;89.40;;;;;;5348215;26;20066;-39
2024/04/26 01:23:23;;;;;;;3.17;1.77;;;13.20;89.40;;;;;;5347739;26;20013;-37
2024/04/26 01:25:56;;;;;;;3.33;1.77;;;13.20;89.40;;;;;;5349052;26;20011;-38
2024/04/26 01:28:22;;;;;;;2.47;1.50;;;13.20;89.50;;;;;;5348264;26;19997;-37
2024/04/26 01:30:48;;;;;;;4.05;1.75;;;13.20;89.40;;;;;;5348340;26;20012;-39
2024/04/26 01:33:14;;;;;;;4.95;1.58;;;13.20;89.40;;;;;;5347515;26;20074;-39
2024/04/26 01:35:39;;;;;;;3.08;1.58;;;13.20;89.30;;;;;;5348606;26;19997;-38
2024/04/26 01:38:05;;;;;;;2.80;1.73;;;13.20;89.30;;;;;;5347983;26;20016;-38
2024/04/26 01:40:31;;;;;;;2.42;1.60;;;13.20;89.30;;;;;;5347461;26;20005;-37
2024/04/26 01:42:56;;;;;;;2.67;1.80;;;13.20;89.30;;;;;;5348609;26;20326;-37
2024/04/26 01:45:22;;;;;;;3.78;1.92;;;13.20;89.30;;;;;;5347743;26;20007;-39
2024/04/26 01:47:47;;;;;;;3.20;2.08;;;13.20;89.20;;;;;;5346714;26;20081;-39
2024/04/26 01:50:13;;;;;;;4.85;2.42;;;13.20;89.30;;;;;;5348860;26;20011;-39
2024/04/26 01:52:39;;;;;;;2.58;1.90;;;13.20;89.30;;;;;;5348190;26;20009;-41
2024/04/26 01:55:04;;;;;;;3.95;1.65;;;13.20;89.20;;;;;;5349033;26;20045;-38
2024/04/26 01:57:30;;;;;;;2.80;1.70;;;13.20;89.20;;;;;;5347893;26;20443;-39
2024/04/26 01:59:55;;;;;;;3.00;1.70;;;13.20;89.20;;;;;;5348794;26;20473;-39
2024/04/26 02:02:21;;;;;;;3.10;1.60;;;13.20;89.10;;;;;;5348274;26;20442;-38
2024/04/26 02:04:47;;;;;;;3.83;1.90;;;13.20;89.20;;;;;;5347145;26;19996;-38
2024/04/26 02:07:12;;;;;;;3.03;1.70;;;13.20;89.20;;;;;;5347665;26;20436;-40
2024/04/26 02:09:38;;;;;;;5.10;1.60;;;13.20;89.20;;;;;;5347836;26;20016;-37
2024/04/26 02:12:04;;;;;;;4.15;2.05;;;13.20;89.20;;;;;;5346964;26;20378;-39
2024/04/26 02:14:29;;;;;;;3.50;1.83;;;13.10;89.20;;;;;;5348004;26;20369;-40
2024/04/26 02:16:55;;;;;;;3.08;1.40;;;13.10;89.20;;;;;;5347202;26;20011;-41
2024/04/26 02:19:24;;;;;;;3.80;1.88;;;13.10;89.20;;;;;;5347636;26;20434;-40
2024/04/26 02:21:49;;;;;;;3.15;1.70;;;13.10;89.20;;;;;;5347343;26;20419;-37
2024/04/26 02:24:15;;;;;;;3.95;1.77;;;13.10;89.30;;;;;;5347438;26;20009;-39
2024/04/26 02:26:40;;;;;;;2.65;1.50;;;13.10;89.30;;;;;;5348229;26;20008;-44
2024/04/26 02:29:06;;;;;;;2.10;1.38;;;13.10;89.30;;;;;;5347421;26;20001;-38
2024/04/26 02:31:31;;;;;;;3.75;1.85;;;13.10;89.30;;;;;;5346959;26;20000;-37
2024/04/26 02:33:57;;;;;;;3.10;1.75;;;13.10;89.30;;;;;;5347437;26;20008;-38
2024/04/26 02:36:23;;;;;;;3.20;1.90;;;13.10;89.30;;;;;;5347023;26;20412;-41
2024/04/26 02:38:48;;;;;;;2.38;1.65;;;13.10;89.30;;;;;;5346952;26;20029;-40
2024/04/26 02:41:14;;;;;;;2.40;1.42;;;13.10;89.20;;;;;;5347171;26;20001;-39
2024/04/26 02:43:41;;;;;;;4.32;1.83;;;13.10;89.20;;;;;;5346554;26;19997;-42
2024/04/26 02:46:12;;;;;;;4.25;1.55;;;13.10;89.20;;;;;;5348183;26;20324;-38
2024/04/26 02:48:39;;;;;;;3.15;1.73;;;13.10;89.20;;;;;;5347527;26;20108;-38
2024/04/26 02:51:08;;;;;;;2.83;1.50;;;13.10;89.30;;;;;;5345774;26;20066;-37
2024/04/26 02:53:33;;;;;;;2.15;1.40;;;13.10;89.30;;;;;;5347145;26;20008;-38
2024/04/26 02:55:59;;;;;;;3.97;1.45;;;13.10;89.20;;;;;;5347091;26;19997;-39
2024/04/26 02:58:24;;;;;;;1.75;1.15;;;13.10;89.20;;;;;;5344653;26;20077;-40
2024/04/26 03:00:50;;;;;;;3.45;1.63;;;13.10;89.20;;;;;;5347444;26;20008;-39
2024/04/26 03:03:16;;;;;;;2.30;1.67;;;13.10;89.30;;;;;;5346850;26;19993;-41
2024/04/26 03:05:41;;;;;;;2.33;1.70;;;13.10;89.30;;;;;;5346207;26;20359;-37
2024/04/26 03:08:07;;;;;;;1.73;1.40;;;13.10;89.20;;;;;;5345769;26;19996;-39
2024/04/26 03:10:33;;;;;;;2.28;1.60;;;13.00;89.20;;;;;;5347023;26;19997;-38
2024/04/26 03:12:58;;;;;;;3.00;1.42;;;13.00;89.20;;;;;;5346154;26;20001;-39
2024/04/26 03:15:25;;;;;;;2.22;1.55;;;13.00;89.20;;;;;;5346184;26;20001;-37
2024/04/26 03:17:50;;;;;;;2.75;1.80;;;13.00;89.20;;;;;;5346337;26;20366;-42
2024/04/26 03:20:16;;;;;;;2.50;1.48;;;13.00;89.20;;;;;;5347192;26;20001;-38
2024/04/26 03:22:42;;;;;;;2.15;1.48;;;13.00;89.20;;;;;;5347190;26;19997;-39
2024/04/26 03:25:09;;;;;;;2.20;1.45;;;13.00;89.20;;;;;;5346157;26;20522;-41
2024/04/26 03:27:35;;;;;;;2.50;1.50;;;13.00;90.00;;;;;;5346204;26;19993;-39
2024/04/26 03:30:01;;;;;;;3.22;1.60;;;13.00;89.10;;;;;;5347318;26;20385;-37
2024/04/26 03:32:30;;;;;;;4.63;1.50;;;13.00;89.10;;;;;;5347698;26;20071;-37
2024/04/26 03:34:56;;;;;;;2.60;1.50;;;13.00;89.20;;;;;;5346134;26;20001;-40
2024/04/26 03:37:22;;;;;;;3.35;1.50;;;13.00;89.20;;;;;;5346450;26;19997;-37
2024/04/26 03:39:47;;;;;;;2.25;1.50;;;13.00;89.20;;;;;;5347379;26;20048;-37
2024/04/26 03:42:13;;;;;;;2.08;1.40;;;13.00;89.20;;;;;;5347074;26;20001;-38
2024/04/26 03:44:39;;;;;;;3.20;1.35;;;13.00;89.20;;;;;;5346315;26;20362;-39
2024/04/26 03:47:05;;;;;;;3.88;1.50;;;13.00;89.20;;;;;;5346850;26;20067;-39
2024/04/26 03:49:30;;;;;;;2.95;1.50;;;13.00;89.20;;;;;;5345624;26;20011;-39
2024/04/26 03:51:56;;;;;;;3.08;1.35;;;13.00;89.20;;;;;;5345706;26;20009;-37
2024/04/26 03:54:22;;;;;;;2.60;1.42;;;13.00;89.20;;;;;;5345637;26;19997;-38
2024/04/26 03:56:47;;;;;;;3.85;1.60;;;13.00;89.20;;;;;;5346377;26;20058;-37
2024/04/26 03:59:13;;;;;;;3.17;1.58;;;13.00;89.20;;;;;;5346709;26;20000;-39
2024/04/26 04:01:39;;;;;;;2.42;1.38;;;13.00;89.20;;;;;;5346227;26;20485;-38
2024/04/26 04:04:04;;;;;;;2.05;1.40;;;13.00;89.20;;;;;;5345267;26;20012;-37
2024/04/26 04:06:30;;;;;;;2.50;1.50;;;13.00;89.30;;;;;;5345189;26;19997;-38
2024/04/26 04:08:56;;;;;;;2.38;1.60;;;13.00;89.30;;;;;;5346681;26;20008;-39
2024/04/26 04:11:22;;;;;;;2.72;1.73;;;12.90;89.20;;;;;;5346977;26;19997;-39
2024/04/26 04:13:47;;;;;;;2.70;1.63;;;12.90;89.30;;;;;;5346940;26;20323;-37
2024/04/26 04:16:14;;;;;;;2.78;1.45;;;13.00;89.30;;;;;;5347137;26;19997;-37
2024/04/26 04:18:40;;;;;;;1.65;1.30;;;13.00;89.40;;;;;;5345770;26;20028;-38
2024/04/26 04:21:07;;;;;;;2.92;1.45;;;12.90;89.20;;;;;;5346637;26;20474;-37
2024/04/26 04:23:32;;;;;;;3.33;1.80;;;12.90;89.20;;;;;;5346346;26;20004;-38
2024/04/26 04:25:58;;;;;;;2.58;1.30;;;12.90;89.40;;;;;;5346053;26;20000;-37
2024/04/26 04:28:24;;;;;;;2.80;1.33;;;12.90;89.40;;;;;;5345328;26;20048;-37
2024/04/26 04:30:50;;;;;;;2.78;1.40;;;12.90;89.40;;;;;;5344942;26;19997;-38
2024/04/26 04:33:18;;;;;;;3.13;1.40;;;12.90;89.40;;;;;;5344979;26;20459;-37
2024/04/26 04:35:44;;;;;;;2.33;1.60;;;12.90;89.40;;;;;;5346308;26;19997;-38
2024/04/26 04:38:11;;;;;;;3.03;1.75;;;12.90;89.40;;;;;;5346066;26;20375;-39
2024/04/26 04:40:37;;;;;;;2.70;1.67;;;12.90;89.50;;;;;;5347520;26;20001;-37
2024/04/26 04:43:03;;;;;;;2.60;1.33;;;12.90;89.50;;;;;;5346345;26;20078;-39
2024/04/26 04:45:29;;;;;;;2.53;1.42;;;12.90;89.50;;;;;;5346173;26;20007;-39
2024/04/26 04:47:54;;;;;;;3.53;1.55;;;12.90;89.40;;;;;;5345260;26;20327;-37
2024/04/26 04:50:20;;;;;;;2.53;1.45;;;12.90;89.50;;;;;;5344622;26;20423;-39
2024/04/26 04:52:46;;;;;;;2.10;1.30;;;12.90;89.50;;;;;;5344944;26;19993;-38
2024/04/26 04:55:11;;;;;;;3.47;1.42;;;12.90;89.60;;;;;;5345024;26;20025;-38
2024/04/26 04:57:37;;;;;;;2.88;1.70;;;12.80;89.50;;;;;;5344547;26;20008;-39
2024/04/26 05:00:05;;;;;;;3.05;1.60;;;12.90;89.70;;;;;;5345009;26;20001;-39
2024/04/26 05:02:30;;;;;;;2.33;1.50;;;12.80;89.70;;;;;;5344725;26;20397;-37
2024/04/26 05:04:56;;;;;;;3.53;1.70;;;12.80;89.70;;;;;;5345270;26;20001;-38
2024/04/26 05:07:22;;;;;;;2.83;1.60;;;12.80;89.70;;;;;;5344270;26;20335;-37
2024/04/26 05:09:48;;;;;;;2.42;1.42;;;12.80;89.70;;;;;;5344170;26;20435;-37
2024/04/26 05:12:14;;;;;;;2.15;1.30;;;12.80;89.70;;;;;;5345099;26;19997;-39
2024/04/26 05:14:39;;;;;;;2.30;1.30;;;12.80;89.70;;;;;;5346066;26;20074;-38
2024/04/26 05:17:05;;;;;;;3.42;1.50;;;12.80;89.70;;;;;;5349226;26;20001;-39
2024/04/26 05:19:31;;;;;;;3.20;1.58;;;12.80;89.80;;;;;;5347903;26;20546;-39
2024/04/26 05:21:56;;;;;;;1.70;1.40;;;12.80;89.90;;;;;;5347573;26;20012;-39
2024/04/26 05:24:25;;;;;;;2.17;1.45;;;12.80;89.90;;;;;;5348210;26;19997;-39
2024/04/26 05:26:54;;;;;;;2.67;1.73;;;12.80;89.90;;;;;;5348239;26;20410;-39
2024/04/26 05:29:20;;;;;;;2.50;1.15;;;12.80;89.90;;;;;;5347994;26;20342;-37
2024/04/26 05:31:48;;;;;;;3.67;1.58;;;12.80;89.90;;;;;;5347543;26;20000;-38
2024/04/26 05:34:13;;;;;;;2.75;1.40;;;12.80;89.90;;;;;;5347680;26;20001;-37
2024/04/26 05:36:39;;;;;;;3.47;1.60;;;12.80;89.90;;;;;;5349371;26;20362;-37
2024/04/26 05:39:05;;;;;;;2.25;1.23;;;12.80;89.90;;;;;;5348431;26;20001;-37
2024/04/26 05:41:31;;;;;;;2.63;1.50;;;12.80;89.90;;;;;;5347531;26;20512;-38
2024/04/26 05:43:57;;;;;;;2.33;1.50;;;12.80;89.90;;;;;;5347975;26;19997;-41
2024/04/26 05:46:23;;;;;;;6.10;1.80;;;12.80;89.90;;;;;;5348622;26;20346;-39
2024/04/26 05:48:49;;;;;;;2.45;1.48;;;12.80;89.90;;;;;;5347625;26;20070;-39
2024/04/26 05:51:16;;;;;;;2.80;1.42;;;12.80;90.00;;;;;;5347710;26;20001;-39
2024/04/26 05:53:42;;;;;;;2.60;1.50;;;12.80;90.00;;;;;;5348374;26;20450;-39
2024/04/26 05:56:08;;;;;;;4.15;1.95;;;12.80;90.00;;;;;;5347390;26;20371;-37
2024/04/26 05:58:37;;;;;;;2.65;1.60;;;12.80;90.10;;;;;;5347399;26;20078;-38
2024/04/26 06:01:03;;;;;;;2.08;1.60;;;12.70;90.10;;;;;;5346917;26;20418;-39
2024/04/26 06:03:28;;;;;;;4.18;1.83;;;12.70;90.10;;;;;;5347290;26;20613;-38
2024/04/26 06:05:56;;;;;;;2.55;1.40;;;12.70;90.10;;;;;;5347150;26;19997;-39
2024/04/26 06:08:22;;;;;;;3.90;1.40;;;12.70;90.10;;;;;;5348402;26;20016;-39
2024/04/26 06:10:48;;;;;;;2.00;1.40;;;12.70;90.10;;;;;;5347150;26;20069;-38
2024/04/26 06:13:13;;;;;;;2.10;1.55;;;12.70;90.10;;;;;;5347548;26;20515;-37
2024/04/26 06:15:39;;;;;;;4.38;1.60;;;12.80;90.10;;;;;;5347826;26;20413;-37
2024/04/26 06:18:05;;;;;;;2.10;1.40;;;12.80;90.20;;;;;;5347871;26;20012;-37
2024/04/26 06:20:31;;;;;;;3.88;1.83;;;12.70;90.10;;;;;;5347309;26;20075;-39
2024/04/26 06:22:57;;;;;;;4.72;1.50;;;12.70;90.20;;;;;;5348144;26;20011;-40
2024/04/26 06:25:25;;;;;;;2.67;1.52;;;12.70;90.10;;;;;;5347196;26;20005;-37
2024/04/26 06:27:54;;;;;;;2.28;1.33;;;12.70;90.20;;;;;;5347683;26;20001;-37
2024/04/26 06:30:20;;;;;;;3.30;1.67;;;12.70;90.20;;;;;;5347862;26;19997;-37
2024/04/26 06:32:45;;;;;;;2.80;1.60;;;12.70;90.20;;;;;;5346627;26;20369;-38
2024/04/26 06:35:11;;;;;;;3.28;1.60;;;12.70;90.20;;;;;;5347729;26;20008;-37
2024/04/26 06:37:37;;;;;;;2.28;1.60;;;12.70;90.20;;;;;;5347198;26;20334;-39
2024/04/26 06:40:02;;;;;;;3.38;1.40;;;12.70;90.20;;;;;;5346779;26;20001;-38
2024/04/26 06:42:28;;;;;;;2.90;1.45;;;12.70;90.20;;;;;;5347170;26;20012;-39
2024/04/26 06:44:54;;;;;;;3.00;1.52;;;12.70;90.20;;;;;;5346328;26;20001;-38
2024/04/26 06:47:20;;;;;;;3.08;1.52;;;12.80;90.20;;;;;;5346714;26;20041;-42
2024/04/26 06:49:45;;;;;;;2.33;1.42;;;12.70;90.60;;;;;;5347733;26;19997;-38
2024/04/26 06:52:12;;;;;;;2.92;1.77;;;12.80;90.20;;;;;;5347180;26;20104;-37
2024/04/26 06:54:38;;;;;;;2.20;1.50;;;12.80;90.20;;;;;;5345452;26;20000;-38
2024/04/26 06:57:04;;;;;;;2.95;1.48;;;12.80;90.20;;;;;;5346549;26;20000;-40
2024/04/26 06:59:30;;;;;;;3.10;1.75;;;12.80;90.20;;;;;;5347262;26;20009;-42
2024/04/26 07:01:56;;;;;;;3.05;1.50;;;12.80;90.20;;;;;;5347774;26;20470;-38
2024/04/26 07:04:24;;;;;;;2.22;1.30;;;12.80;90.30;;;;;;5347309;26;20008;-37
2024/04/26 07:06:50;;;;;;;2.10;1.30;;;12.80;90.30;;;;;;5346566;26;20004;-38
2024/04/26 07:09:16;;;;;;;2.40;1.35;;;12.80;90.30;;;;;;5346326;26;20012;-43
2024/04/26 07:11:45;;;;;;;3.53;1.40;;;12.80;90.30;;;;;;5347751;26;20381;-38
2024/04/26 07:14:12;;;;;;;1.75;1.10;;;12.80;90.30;;;;;;5347442;26;20001;-39
2024/04/26 07:16:37;;;;;;;2.65;1.40;;;12.80;90.30;;;;;;5345991;26;20020;-37
2024/04/26 07:19:03;;;;;;;3.63;1.55;;;12.80;90.30;;;;;;5345959;26;20484;-39
2024/04/26 07:21:29;;;;;;;2.63;1.67;;;12.80;90.30;;;;;;5345913;26;20008;-39
2024/04/26 07:23:55;;;;;;;2.33;1.27;;;12.80;90.30;;;;;;5346823;26;20377;-38
2024/04/26 07:26:21;;;;;;;3.25;1.38;;;12.80;90.40;;;;;;5346122;26;20008;-39
2024/04/26 07:28:50;;;;;;;2.20;1.40;;;12.80;90.40;;;;;;5346302;26;19997;-38
2024/04/26 07:31:16;;;;;;;2.17;1.30;;;12.80;90.70;;;;;;5346555;26;19997;-37
2024/04/26 07:33:42;;;;;;;1.88;1.20;;;12.80;90.40;;;;;;5346401;26;20008;-37
2024/04/26 07:36:08;;;;;;;2.08;1.33;;;12.80;90.40;;;;;;5345772;26;19997;-38
2024/04/26 07:38:34;;;;;;;2.97;1.42;;;12.80;90.40;;;;;;5344999;26;20005;-39
2024/04/26 07:41:00;;;;;;;2.70;1.52;;;12.80;90.40;;;;;;5346892;26;19997;-38
2024/04/26 07:43:30;;;;;;;1.98;1.20;;;12.80;90.40;;;;;;5346867;26;20076;-39
2024/04/26 07:45:55;;;;;;;2.58;1.50;;;12.80;90.40;;;;;;5346532;26;20016;-38
2024/04/26 07:48:21;;;;;;;2.13;1.30;;;12.80;90.40;;;;;;5345963;26;20012;-38
2024/04/26 07:50:50;;;;;;;3.17;1.52;;;12.80;90.40;;;;;;5346576;26;20078;-39
2024/04/26 07:53:15;;;;;;;2.50;1.48;;;12.80;90.40;;;;;;5346338;26;19997;-39
2024/04/26 07:55:41;;;;;;;2.28;1.08;;;12.80;90.40;;;;;;5346867;26;20012;-37
2024/04/26 07:58:07;;;;;;;1.67;1.13;;;12.80;90.50;;;;;;5346909;26;20029;-39
2024/04/26 08:00:33;;;;;;;3.05;1.90;;;12.80;90.50;;;;;;5346203;26;20008;-40
2024/04/26 08:03:00;;;;;;;4.57;1.98;;;12.80;90.60;;;;;;5345888;26;20075;-38
2024/04/26 08:05:26;;;;;;;6.10;2.00;;;12.80;90.70;;;;;;5346640;26;20066;-40
2024/04/26 08:07:51;;;;;;;5.53;2.00;;;12.80;90.70;;;;;;5346995;26;20000;-41
2024/04/26 08:10:17;;;;;;;4.07;1.98;;;12.70;91.20;;;;;;5345061;26;20005;-40
2024/04/26 08:12:43;;;;;;;3.80;2.05;;;12.70;90.90;;;;;;5345651;26;20009;-41
2024/04/26 08:15:09;;;;;;;3.72;1.90;;;12.70;90.90;;;;;;5346150;26;20457;-43
2024/04/26 08:17:36;;;;;;;3.42;1.90;;;12.70;90.80;;;;;;5346121;26;20087;-43
2024/04/26 08:20:02;;;;;;;4.75;2.15;;;12.80;90.90;;;;;;5345669;26;20303;-40
2024/04/26 08:22:30;;;;;;;2.90;1.38;;;12.80;90.90;;;;;;5344997;26;19997;-39
2024/04/26 08:24:56;;;;;;;5.38;1.48;;;12.90;90.80;;;;;;5345153;26;20080;-40
2024/04/26 08:27:22;;;;;;;3.13;1.40;;;12.90;90.70;;;;;;5345321;26;20546;-40
2024/04/26 08:29:48;;;;;;;3.85;1.85;;;12.90;90.70;;;;;;5345317;26;20504;-42
2024/04/26 08:32:14;;;;;;;2.75;1.40;;;12.90;90.60;;;;;;5346544;26;20001;-42
2024/04/26 08:34:40;;;;;;;5.28;1.58;;;13.00;90.60;;;;;;5345826;26;20361;-39
2024/04/26 08:37:07;;;;;;;2.85;1.40;;;13.00;90.60;;;;;;5345420;26;20007;-42
2024/04/26 08:39:33;;;;;;;5.97;1.67;;;13.00;90.60;;;;;;5345153;26;20001;-41
2024/04/26 08:42:01;;;;;;;4.18;1.70;;;13.00;90.60;;;;;;5345097;26;20450;-40
2024/04/26 08:44:27;;;;;;;3.58;1.40;;;13.00;90.50;;;;;;5346210;26;20001;-40
2024/04/26 08:46:55;;;;;;;3.88;1.58;;;13.10;90.60;;;;;;5344313;26;20071;-40
2024/04/26 08:49:24;;;;;;;3.38;1.35;;;13.10;90.60;;;;;;5347539;26;20009;-40
2024/04/26 08:51:54;;;;;;;3.15;1.33;;;13.10;90.50;;;;;;5347933;26;20429;-40
2024/04/26 08:54:20;;;;;;;3.45;1.55;;;13.10;90.90;;;;;;5349091;26;20074;-39
2024/04/26 08:56:48;;;;;;;7.22;1.73;;;13.10;90.50;;;;;;5349012;26;19997;-40
2024/04/26 08:59:18;;;;;;;9.23;1.92;;;13.10;90.80;;;;;;5347894;26;19996;-37
2024/04/26 09:01:45;;;;;;;7.25;1.70;;;13.10;91.20;;;;;;5348434;26;20465;-37
2024/04/26 09:04:12;;;;;;;5.70;1.85;;;13.10;91.20;;;;;;5349262;26;20070;-39
2024/04/26 09:06:37;;;;;;;6.97;1.63;;;13.10;91.10;;;;;;5347858;26;20008;-39
2024/04/26 09:09:03;;;;;;;5.97;1.70;;;13.10;91.00;;;;;;5347715;26;20001;-39
2024/04/26 09:11:30;;;;;;;8.13;1.63;;;13.10;91.00;;;;;;5347788;26;20388;-38
2024/04/26 09:13:56;;;;;;;10.82;1.50;;;13.20;91.00;;;;;;5348282;26;20013;-38
2024/04/26 09:16:23;;;;;;;8.27;1.70;;;13.20;90.90;;;;;;5348709;26;20051;-38
2024/04/26 09:18:49;;;;;;;7.90;1.52;;;13.20;90.90;;;;;;5348123;26;20123;-38
2024/04/26 09:21:15;;;;;;;5.88;1.70;;;13.20;90.90;;;;;;5348752;26;19996;-37
2024/04/26 09:23:41;;;;;;;5.57;1.60;;;13.20;90.80;;;;;;5349188;26;20073;-39
2024/04/26 09:26:08;;;;;;;4.85;1.25;;;13.30;90.80;;;;;;5348931;26;20425;-39
2024/04/26 09:28:36;;;;;;;5.63;1.60;;;13.30;90.80;;;;;;5348177;26;20081;-38
2024/04/26 09:31:03;;;;;;;4.82;1.40;;;13.30;90.80;;;;;;5347917;26;19996;-38
2024/04/26 09:33:30;;;;;;;4.90;1.30;;;13.30;90.80;;;;;;5348216;26;20020;-37
2024/04/26 09:35:57;;;;;;;4.53;1.50;;;13.30;90.80;;;;;;5348119;26;20442;-39
2024/04/26 09:38:23;;;;;;;4.55;1.60;;;13.30;90.80;;;;;;5347647;26;20001;-37
2024/04/26 09:40:53;;;;;;;5.13;1.30;;;13.30;90.80;;;;;;5348296;26;20001;-39
2024/04/26 09:43:19;;;;;;;3.40;1.40;;;13.30;90.70;;;;;;5347953;26;20334;-39
2024/04/26 09:45:46;;;;;;;8.77;1.30;;;13.30;90.80;;;;;;5348258;26;19993;-38
2024/04/26 09:48:13;;;;;;;2.47;1.02;;;13.30;90.80;;;;;;5348159;26;20001;-39
2024/04/26 09:50:39;;;;;;;3.53;1.15;;;13.30;90.80;;;;;;5348237;26;20011;-37
2024/04/26 09:53:08;;;;;;;3.90;1.33;;;13.40;90.80;;;;;;5349239;26;19997;-39
2024/04/26 09:55:35;;;;;;;2.05;1.13;;;13.40;90.80;;;;;;5348204;26;20051;-39
2024/04/26 09:58:01;;;;;;;3.83;1.13;;;13.40;90.80;;;;;;5345799;26;20001;-39
2024/04/26 10:00:28;;;;;;;2.60;1.20;;;13.40;90.80;;;;;;5347431;26;20464;-39
2024/04/26 10:03:00;;;;;;;3.85;1.05;;;13.30;90.70;;;;;;5348573;26;20001;-41
2024/04/26 10:05:26;;;;;;;17.80;1.85;;;13.40;90.80;;;;;;5348567;26;20337;-38
2024/04/26 10:07:57;;;;;;;3.05;1.40;;;13.40;91.40;;;;;;5347481;26;19993;-39
2024/04/26 10:10:27;;;;;;;4.00;1.65;;;13.50;91.60;;;;;;5347111;26;19997;-42
2024/04/26 10:13:08;;;;;;;4.30;1.42;;;13.40;91.70;;;;;;5347562;26;20001;-41
2024/04/26 10:15:35;;;;;;;4.35;1.30;;;13.50;91.70;;;;;;5348147;26;20094;-39
2024/04/26 10:18:02;;;;;;;4.07;1.50;;;13.40;91.50;;;;;;5347178;26;20012;-40
2024/04/26 10:20:28;;;;;;;3.53;1.52;;;13.40;91.40;;;;;;5348330;26;19997;-42
2024/04/26 10:23:04;;;;;;;4.38;1.40;;;13.40;91.40;;;;;;5347972;26;20204;-39
2024/04/26 10:25:30;;;;;;;3.45;1.50;;;13.40;91.30;;;;;;5347330;26;20330;-42
2024/04/26 10:28:07;;;;;;;2.45;1.30;;;13.40;91.30;;;;;;5347741;26;20004;-40
2024/04/26 10:30:33;;;;;;;4.55;1.35;;;13.40;91.30;;;;;;5348249;26;20084;-41
2024/04/26 10:33:00;;;;;;;2.50;1.30;;;13.40;91.30;;;;;;5346838;26;20413;-42
2024/04/26 10:35:26;;;;;;;5.82;1.20;;;13.40;91.30;;;;;;5346523;26;20007;-42
2024/04/26 10:37:58;;;;;;;2.78;1.00;;;13.40;91.30;;;;;;5346263;26;20330;-40
2024/04/26 10:40:24;;;;;;;5.28;1.25;;;13.40;91.30;;;;;;5346494;26;20515;-39
2024/04/26 10:42:50;;;;;;;3.67;1.40;;;13.40;91.30;;;;;;5346850;26;19997;-39
2024/04/26 10:45:16;;;;;;;6.05;1.42;;;13.40;91.30;;;;;;5346549;26;20350;-42
2024/04/26 10:47:42;;;;;;;1.60;1.08;;;13.40;91.30;;;;;;5347255;26;20007;-42
2024/04/26 10:50:07;;;;;;;2.35;1.10;;;13.40;91.30;;;;;;5347525;26;19997;-40
2024/04/26 10:52:33;;;;;;;2.20;1.23;;;13.30;91.30;;;;;;5347154;26;20351;-39
2024/04/26 10:54:59;;;;;;;1.95;1.08;;;13.40;91.30;;;;;;5346701;26;19993;-39
2024/04/26 10:57:25;;;;;;;1.85;1.10;;;13.40;91.30;;;;;;5346600;26;19996;-39
2024/04/26 11:00:01;;;;;;;2.38;0.98;;;13.40;91.30;;;;;;5345019;26;20009;-42
2024/04/26 11:02:29;;;;;;;3.55;1.30;;;13.40;91.30;;;;;;5347523;26;20345;-41
2024/04/26 11:05:05;;;;;;;2.80;1.20;;;13.40;91.20;;;;;;5347126;26;20003;-40
2024/04/26 11:07:31;;;;;;;2.58;1.05;;;13.40;91.20;;;;;;5347368;26;20074;-39
2024/04/26 11:09:57;;;;;;;2.25;1.20;;;13.50;91.30;;;;;;5347466;26;20007;-40
2024/04/26 11:12:23;;;;;;;1.70;0.93;;;13.40;91.20;;;;;;5346242;26;19997;-40
2024/04/26 11:14:48;;;;;;;1.70;1.00;;;13.50;91.20;;;;;;5347186;26;20456;-41
2024/04/26 11:17:15;;;;;;;1.70;1.00;;;13.50;91.20;;;;;;5346912;26;20001;-43
2024/04/26 11:19:43;;;;;;;0.90;0.60;;;13.50;91.10;;;;;;5348024;26;19997;-39
2024/04/26 11:22:10;;;;;;;3.88;1.00;;;13.50;91.10;;;;;;5347605;26;20001;-40
2024/04/26 11:24:35;;;;;;;1.60;0.90;;;13.50;91.10;;;;;;5347379;26;19993;-41
2024/04/26 11:27:11;;;;;;;2.80;1.10;;;13.50;91.10;;;;;;5347824;26;20016;-41
2024/04/26 11:29:37;;;;;;;1.70;0.80;;;13.50;91.10;;;;;;5346457;26;20008;-41
2024/04/26 11:32:02;;;;;;;3.28;1.02;;;13.50;91.10;;;;;;5346662;26;20004;-42
2024/04/26 11:34:28;;;;;;;3.38;1.10;;;13.50;91.10;;;;;;5346035;26;19993;-42
2024/04/26 11:36:54;;;;;;;1.50;0.93;;;13.50;91.10;;;;;;5347349;26;20011;-41
2024/04/26 11:39:19;;;;;;;1.35;0.75;;;13.50;91.10;;;;;;5345477;26;20001;-39
2024/04/26 11:41:45;;;;;;;2.67;1.13;;;13.50;91.10;;;;;;5345719;26;20001;-41
2024/04/26 11:44:12;;;;;;;2.05;1.08;;;13.60;91.10;;;;;;5344911;26;20008;-40
2024/04/26 11:46:37;;;;;;;1.98;0.88;;;13.60;91.20;;;;;;5345685;26;20008;-39
2024/04/26 11:49:03;;;;;;;1.50;0.90;;;13.50;91.10;;;;;;5346210;26;20000;-41
2024/04/26 11:51:31;;;;;;;1.67;0.85;;;13.50;91.10;;;;;;5346296;26;20001;-42
2024/04/26 11:53:57;;;;;;;2.42;1.13;;;13.50;91.10;;;;;;5346504;26;20008;-39
2024/04/26 11:56:27;;;;;;;1.65;0.82;;;13.50;91.20;;;;;;5346730;26;20011;-40
2024/04/26 11:58:54;;;;;;;1.90;1.00;;;13.60;91.20;;;;;;5346628;26;20394;-43
2024/04/26 12:01:20;;;;;;;1.90;0.77;;;13.60;91.20;;;;;;5346350;26;20074;-40
2024/04/26 12:03:45;;;;;;;1.70;0.80;;;13.60;91.20;;;;;;5348055;26;20000;-40
2024/04/26 12:06:14;;;;;;;2.00;0.80;;;13.60;91.20;;;;;;5346415;26;20007;-39
2024/04/26 12:08:39;;;;;;;2.60;0.73;;;13.60;91.20;;;;;;5344103;26;20001;-42
2024/04/26 12:11:07;;;;;;;1.27;0.90;;;13.60;91.10;;;;;;5346365;26;19997;-39
2024/04/26 12:13:33;;;;;;;1.33;0.73;;;13.60;91.10;;;;;;5345764;26;20541;-39
2024/04/26 12:16:00;;;;;;;1.90;0.90;;;13.70;91.10;;;;;;5347009;26;20009;-40
2024/04/26 12:18:25;;;;;;;1.67;0.63;;;13.70;91.10;;;;;;5346203;26;20051;-41
2024/04/26 12:20:51;;;;;;;1.70;0.70;;;13.70;91.10;;;;;;5345799;26;20009;-44
2024/04/26 12:23:16;;;;;;;4.30;1.00;;;13.70;91.10;;;;;;5345508;26;20532;-39
2024/04/26 12:25:42;;;;;;;1.50;0.70;;;13.70;91.10;;;;;;5344357;26;20070;-41
2024/04/26 12:28:09;;;;;;;1.75;0.80;;;13.70;91.10;;;;;;5345288;26;20005;-40
2024/04/26 12:30:36;;;;;;;2.22;0.80;;;13.70;91.10;;;;;;5345029;26;20000;-43
2024/04/26 12:33:03;;;;;;;1.20;0.80;;;13.70;91.10;;;;;;5346014;26;20033;-41
2024/04/26 12:35:29;;;;;;;0.70;0.60;;;13.70;91.10;;;;;;5345938;26;19996;-40
2024/04/26 12:37:55;;;;;;;1.48;0.70;;;13.70;91.10;;;;;;5344966;26;20001;-42
2024/04/26 12:40:21;;;;;;;1.25;0.60;;;13.70;91.10;;;;;;5346376;26;20007;-42
2024/04/26 12:42:48;;;;;;;1.77;0.60;;;13.70;91.10;;;;;;5346744;26;20025;-41
2024/04/26 12:45:13;;;;;;;1.05;0.73;;;13.80;91.10;;;;;;5345161;26;20001;-39